Time;durP1;ratioP1;P1;durP2;ratioP2;P2;SDS_P1;SDS_P2;PMS_P1;PMS_P2;Temp;Humidity;BMP_temperature;BMP_pressure;BME280_temperature;BME280_humidity;BME280_pressure;Samples;Min_cycle;Max_cycle;Signal;HPM_P1;HPM_P2
2023/07/18 00:00:44;;;;;;;31.47;29.87;;;14.90;99.90;;;;;;4447686;32;20598;-53
2023/07/18 00:03:12;;;;;;;33.90;32.17;;;14.90;99.90;;;;;;4449418;32;20168;-55
2023/07/18 00:05:40;;;;;;;30.00;28.13;;;14.80;99.90;;;;;;4441985;32;20158;-53
2023/07/18 00:08:07;;;;;;;31.50;29.90;;;14.80;99.90;;;;;;4444455;32;20158;-56
2023/07/18 00:10:35;;;;;;;30.17;28.57;;;14.80;99.90;;;;;;4437517;32;20178;-58
2023/07/18 00:13:04;;;;;;;33.97;32.37;;;14.80;99.90;;;;;;4443101;32;20163;-57
2023/07/18 00:15:31;;;;;;;31.10;29.60;;;14.80;99.90;;;;;;4436785;32;20157;-55
2023/07/18 00:17:59;;;;;;;34.83;33.03;;;14.80;99.90;;;;;;4445033;32;20166;-51
2023/07/18 00:20:26;;;;;;;32.47;30.97;;;14.70;99.90;;;;;;4449979;32;20216;-56
2023/07/18 00:22:52;;;;;;;33.43;31.63;;;14.70;99.90;;;;;;4443847;32;20633;-54
2023/07/18 00:25:21;;;;;;;34.73;32.93;;;14.70;99.90;;;;;;4435956;32;20175;-54
2023/07/18 00:27:49;;;;;;;33.60;31.77;;;14.70;99.90;;;;;;4445509;32;20182;-56
2023/07/18 00:30:18;;;;;;;33.40;31.70;;;14.70;99.90;;;;;;4450725;32;20158;-56
2023/07/18 00:32:46;;;;;;;33.57;31.67;;;14.70;99.90;;;;;;4451378;32;20166;-53
2023/07/18 00:35:13;;;;;;;32.77;31.10;;;14.60;99.90;;;;;;4448868;32;20198;-54
2023/07/18 00:37:40;;;;;;;29.97;28.33;;;14.60;99.90;;;;;;4439101;32;20162;-57
2023/07/18 00:40:10;;;;;;;33.83;32.13;;;14.60;99.90;;;;;;4440932;32;20182;-51
2023/07/18 00:42:37;;;;;;;30.73;29.30;;;14.60;99.90;;;;;;4443182;32;20177;-56
2023/07/18 00:45:06;;;;;;;33.27;31.53;;;14.50;99.90;;;;;;4445486;32;20163;-54
2023/07/18 00:47:37;;;;;;;33.40;31.60;;;14.50;99.90;;;;;;4439139;32;20203;-56
2023/07/18 00:50:07;;;;;;;33.10;31.40;;;14.50;99.90;;;;;;4444923;32;20300;-55
2023/07/18 00:52:34;;;;;;;32.37;30.67;;;14.40;99.90;;;;;;4446336;32;20202;-52
2023/07/18 00:55:02;;;;;;;35.93;34.07;;;14.40;99.90;;;;;;4441272;32;20218;-59
2023/07/18 00:57:29;;;;;;;32.63;31.13;;;14.40;99.90;;;;;;4453056;32;20219;-55
2023/07/18 00:59:56;;;;;;;29.40;27.77;;;14.40;99.90;;;;;;4448494;32;20167;-56
2023/07/18 01:02:24;;;;;;;29.47;27.97;;;14.30;99.90;;;;;;4451708;32;20571;-57
2023/07/18 01:04:52;;;;;;;33.83;31.97;;;14.30;99.90;;;;;;4441409;32;20159;-53
2023/07/18 01:07:20;;;;;;;31.83;30.13;;;14.30;99.90;;;;;;4438430;32;20791;-54
2023/07/18 01:09:47;;;;;;;37.53;35.83;;;14.30;99.90;;;;;;4453618;32;20155;-56
2023/07/18 01:12:14;;;;;;;34.10;32.70;;;14.30;99.90;;;;;;4451768;32;20151;-56
2023/07/18 01:14:41;;;;;;;36.57;34.43;;;14.20;99.90;;;;;;4438620;32;20164;-54
2023/07/18 01:17:09;;;;;;;32.67;30.77;;;14.20;99.90;;;;;;4438476;32;20155;-57
2023/07/18 01:19:36;;;;;;;31.97;30.27;;;14.20;99.90;;;;;;4439147;32;20158;-55
2023/07/18 01:22:05;;;;;;;33.17;31.67;;;14.20;99.90;;;;;;4439203;32;20190;-55
2023/07/18 01:24:31;;;;;;;28.63;27.13;;;14.20;99.90;;;;;;4438245;32;20167;-53
2023/07/18 01:26:58;;;;;;;30.43;28.87;;;14.20;99.90;;;;;;4450642;32;20224;-54
2023/07/18 01:29:25;;;;;;;32.80;31.07;;;14.20;99.90;;;;;;4447056;32;20181;-55
2023/07/18 01:31:52;;;;;;;32.23;30.70;;;14.10;99.90;;;;;;4451607;32;20158;-57
2023/07/18 01:34:19;;;;;;;33.50;31.70;;;14.20;99.90;;;;;;4451688;32;20178;-53
2023/07/18 01:36:46;;;;;;;27.33;25.80;;;14.20;99.90;;;;;;4447766;32;20170;-56
2023/07/18 01:39:14;;;;;;;26.17;24.97;;;14.20;99.90;;;;;;4439840;32;20152;-51
2023/07/18 01:41:41;;;;;;;26.53;25.40;;;14.20;99.90;;;;;;4445805;32;20151;-54
2023/07/18 01:44:10;;;;;;;26.60;25.03;;;14.20;99.90;;;;;;4446011;32;20155;-52
2023/07/18 01:46:36;;;;;;;28.20;26.70;;;14.10;99.90;;;;;;4439755;32;20159;-56
2023/07/18 01:49:03;;;;;;;24.00;22.67;;;14.10;99.90;;;;;;4452627;32;20174;-54
2023/07/18 01:51:30;;;;;;;28.00;26.30;;;14.00;99.90;;;;;;4442465;32;20173;-55
2023/07/18 01:53:57;;;;;;;26.80;25.27;;;14.10;99.90;;;;;;4448756;32;20155;-55
2023/07/18 01:56:25;;;;;;;28.97;27.37;;;14.10;99.90;;;;;;4444937;32;20177;-56
2023/07/18 01:58:52;;;;;;;26.77;25.47;;;14.00;99.90;;;;;;4448964;32;20166;-53
2023/07/18 02:01:19;;;;;;;28.73;27.03;;;14.00;99.90;;;;;;4445046;32;20224;-54
2023/07/18 02:03:46;;;;;;;28.60;27.07;;;14.00;99.90;;;;;;4442946;32;20185;-54
2023/07/18 02:06:13;;;;;;;28.37;26.80;;;13.90;99.90;;;;;;4440904;32;20178;-57
2023/07/18 02:08:40;;;;;;;25.20;23.90;;;13.90;99.90;;;;;;4449515;32;20469;-54
2023/07/18 02:11:07;;;;;;;27.57;25.97;;;13.90;99.90;;;;;;4441705;32;20164;-57
2023/07/18 02:13:35;;;;;;;28.47;26.70;;;13.90;99.90;;;;;;4442333;32;20213;-59
2023/07/18 02:16:02;;;;;;;26.73;25.37;;;13.80;99.90;;;;;;4452517;32;20207;-54
2023/07/18 02:18:29;;;;;;;29.17;27.47;;;13.80;99.90;;;;;;4444772;32;20582;-57
2023/07/18 02:20:56;;;;;;;31.93;30.53;;;13.80;99.90;;;;;;4445610;32;20174;-53
2023/07/18 02:23:23;;;;;;;30.87;29.07;;;13.80;99.90;;;;;;4446792;32;20155;-54
2023/07/18 02:25:50;;;;;;;28.13;26.63;;;13.70;99.90;;;;;;4447173;32;20155;-56
2023/07/18 02:28:16;;;;;;;28.33;27.03;;;13.70;99.90;;;;;;4441848;32;20181;-55
2023/07/18 02:30:45;;;;;;;27.13;25.73;;;13.70;99.90;;;;;;4444029;32;20178;-55
2023/07/18 02:33:11;;;;;;;28.10;26.67;;;13.60;99.90;;;;;;4450101;32;20181;-53
2023/07/18 02:35:38;;;;;;;33.73;32.17;;;13.70;99.90;;;;;;4445100;32;20174;-55
2023/07/18 02:38:05;;;;;;;34.47;32.77;;;13.60;99.90;;;;;;4437089;32;20572;-55
2023/07/18 02:40:32;;;;;;;35.97;33.97;;;13.60;99.90;;;;;;4442056;32;20180;-55
2023/07/18 02:42:59;;;;;;;34.13;32.40;;;13.60;99.90;;;;;;4446518;32;20282;-55
2023/07/18 02:45:25;;;;;;;37.27;35.27;;;13.60;99.90;;;;;;4447999;32;20180;-54
2023/07/18 02:47:54;;;;;;;34.90;33.03;;;13.60;99.90;;;;;;4453534;32;20166;-55
2023/07/18 02:50:21;;;;;;;35.17;33.50;;;13.60;99.90;;;;;;4439024;32;20232;-55
2023/07/18 02:52:48;;;;;;;34.20;32.60;;;13.60;99.90;;;;;;4437128;32;20175;-52
2023/07/18 02:55:15;;;;;;;41.27;39.37;;;13.60;99.90;;;;;;4438292;32;20689;-53
2023/07/18 02:57:42;;;;;;;33.83;32.10;;;13.50;99.90;;;;;;4444927;32;20461;-52
2023/07/18 03:00:19;;;;;;;31.67;29.87;;;13.50;99.90;;;;;;4438086;32;20579;-55
2023/07/18 03:02:48;;;;;;;33.50;31.80;;;13.50;99.90;;;;;;4436824;32;20151;-54
2023/07/18 03:05:17;;;;;;;37.17;34.80;;;13.40;99.90;;;;;;4438403;32;20473;-56
2023/07/18 03:07:46;;;;;;;33.23;31.43;;;13.40;99.90;;;;;;4445561;32;20228;-54
2023/07/18 03:10:13;;;;;;;34.43;32.60;;;13.40;99.90;;;;;;4436353;32;20260;-57
2023/07/18 03:12:40;;;;;;;31.33;29.73;;;13.30;99.90;;;;;;4436639;32;20189;-51
2023/07/18 03:15:09;;;;;;;33.00;31.23;;;13.30;99.90;;;;;;4441774;32;20161;-53
2023/07/18 03:17:36;;;;;;;34.60;32.83;;;13.30;99.90;;;;;;4440249;32;20205;-54
2023/07/18 03:20:06;;;;;;;34.10;32.20;;;13.30;99.90;;;;;;4452080;32;20149;-52
2023/07/18 03:22:34;;;;;;;33.00;31.20;;;13.20;99.90;;;;;;4446083;32;20163;-54
2023/07/18 03:25:06;;;;;;;37.50;35.43;;;13.20;99.90;;;;;;4438926;32;20263;-54
2023/07/18 03:27:32;;;;;;;37.23;35.33;;;13.20;99.90;;;;;;4436932;32;20452;-55
2023/07/18 03:29:59;;;;;;;33.97;32.37;;;13.20;99.90;;;;;;4445330;32;20165;-53
2023/07/18 03:32:26;;;;;;;36.17;34.07;;;13.10;99.90;;;;;;4453404;32;20167;-52
2023/07/18 03:34:53;;;;;;;35.57;33.53;;;13.10;99.90;;;;;;4451248;32;20159;-54
2023/07/18 03:37:20;;;;;;;31.17;29.50;;;13.20;99.90;;;;;;4447130;32;20627;-56
2023/07/18 03:39:48;;;;;;;34.30;32.50;;;13.20;99.90;;;;;;4451538;32;20178;-55
2023/07/18 03:42:15;;;;;;;31.73;29.90;;;13.30;99.90;;;;;;4440800;32;20209;-54
2023/07/18 03:44:43;;;;;;;32.70;30.90;;;13.30;99.90;;;;;;4443699;32;20186;-55
2023/07/18 03:47:09;;;;;;;37.27;35.37;;;13.30;99.90;;;;;;4443040;32;20166;-53
2023/07/18 03:49:36;;;;;;;36.07;34.13;;;13.40;99.90;;;;;;4444942;32;20527;-56
2023/07/18 03:52:04;;;;;;;36.50;34.50;;;13.30;99.90;;;;;;4447843;32;20159;-54
2023/07/18 03:54:31;;;;;;;34.20;32.67;;;13.30;99.90;;;;;;4439958;32;20195;-53
2023/07/18 03:56:59;;;;;;;35.13;33.37;;;13.30;99.90;;;;;;4443147;32;20210;-53
2023/07/18 03:59:26;;;;;;;35.63;33.70;;;13.30;99.90;;;;;;4450731;32;20173;-56
2023/07/18 04:01:53;;;;;;;36.80;35.00;;;13.30;99.90;;;;;;4452135;32;20608;-54
2023/07/18 04:04:20;;;;;;;38.90;36.97;;;13.30;99.90;;;;;;4442521;32;20200;-56
2023/07/18 04:06:47;;;;;;;36.43;34.27;;;13.30;99.90;;;;;;4441870;32;20189;-56
2023/07/18 04:09:14;;;;;;;33.00;31.40;;;13.40;99.90;;;;;;4446302;32;20193;-57
2023/07/18 04:11:43;;;;;;;35.53;33.67;;;13.30;99.90;;;;;;4436982;32;20190;-57
2023/07/18 04:14:12;;;;;;;34.13;32.43;;;13.30;99.90;;;;;;4438095;32;20263;-55
2023/07/18 04:16:38;;;;;;;36.30;34.17;;;13.40;99.90;;;;;;4450917;32;20159;-59
2023/07/18 04:19:07;;;;;;;36.80;34.90;;;13.30;99.90;;;;;;4452444;32;20190;-53
2023/07/18 04:21:35;;;;;;;38.97;36.77;;;13.40;99.90;;;;;;4444459;32;20188;-54
2023/07/18 04:24:02;;;;;;;31.93;30.33;;;13.40;99.90;;;;;;4439541;32;20167;-55
2023/07/18 04:26:28;;;;;;;35.43;33.83;;;13.40;99.90;;;;;;4445661;32;20158;-57
2023/07/18 04:28:55;;;;;;;35.57;33.90;;;13.40;99.90;;;;;;4438337;32;20169;-59
2023/07/18 04:31:23;;;;;;;38.67;36.77;;;13.50;99.90;;;;;;4445221;32;20158;-55
2023/07/18 04:33:50;;;;;;;36.00;34.13;;;13.50;99.90;;;;;;4437199;32;20170;-53
2023/07/18 04:36:17;;;;;;;37.57;35.47;;;13.50;99.90;;;;;;4449812;32;20159;-54
2023/07/18 04:38:44;;;;;;;36.63;34.67;;;13.60;99.90;;;;;;4453186;32;20147;-56
2023/07/18 04:41:11;;;;;;;38.17;36.37;;;13.70;99.90;;;;;;4443526;32;20182;-54
2023/07/18 04:43:38;;;;;;;37.73;36.00;;;13.80;99.90;;;;;;4435972;32;20212;-54
2023/07/18 04:46:07;;;;;;;38.27;36.27;;;14.70;99.90;;;;;;4436124;32;20212;-54
2023/07/18 04:48:36;;;;;;;39.07;37.17;;;16.10;99.90;;;;;;4437534;32;20159;-56
2023/07/18 04:51:04;;;;;;;37.00;35.10;;;17.80;99.90;;;;;;4436973;32;20155;-54
2023/07/18 04:53:32;;;;;;;37.63;35.53;;;19.60;99.90;;;;;;4442866;32;20159;-56
2023/07/18 04:56:00;;;;;;;26.20;24.90;;;21.10;99.90;;;;;;4443347;32;20219;-56
2023/07/18 04:58:27;;;;;;;18.83;17.77;;;22.80;99.90;;;;;;4442321;32;20423;-56
2023/07/18 05:00:55;;;;;;;18.87;17.67;;;24.50;99.90;;;;;;4434908;32;20602;-53
2023/07/18 05:03:22;;;;;;;26.70;25.47;;;26.10;98.30;;;;;;4436547;32;20486;-53
2023/07/18 05:05:50;;;;;;;28.67;26.87;;;27.50;95.20;;;;;;4437320;32;20155;-56
2023/07/18 05:08:17;;;;;;;31.70;30.33;;;28.60;93.10;;;;;;4441613;32;20178;-57
2023/07/18 05:10:44;;;;;;;28.25;26.98;;;29.40;90.90;;;;;;4435081;32;20152;-59
2023/07/18 05:13:11;;;;;;;28.65;27.15;;;29.70;90.00;;;;;;4435391;32;20194;-52
2023/07/18 05:15:38;;;;;;;28.87;27.27;;;30.60;87.70;;;;;;4435038;32;20159;-53
2023/07/18 05:18:05;;;;;;;28.05;26.75;;;31.50;83.90;;;;;;4437142;32;20186;-56
2023/07/18 05:20:34;;;;;;;26.83;25.52;;;32.20;81.10;;;;;;4439839;32;20159;-58
2023/07/18 05:23:02;;;;;;;26.35;24.75;;;32.70;79.80;;;;;;4443340;32;20520;-57
2023/07/18 05:25:29;;;;;;;24.83;23.73;;;33.40;76.60;;;;;;4440715;32;20191;-55
2023/07/18 05:27:58;;;;;;;26.62;25.33;;;33.40;75.80;;;;;;4439084;32;20190;-57
2023/07/18 05:30:25;;;;;;;24.77;23.67;;;32.30;76.30;;;;;;4438824;32;20453;-58
2023/07/18 05:32:53;;;;;;;27.40;26.10;;;30.00;78.90;;;;;;4446997;32;20156;-56
2023/07/18 05:35:20;;;;;;;26.60;25.30;;;27.30;84.80;;;;;;4444548;32;20467;-54
2023/07/18 05:37:47;;;;;;;32.15;30.17;;;25.20;89.00;;;;;;4447402;32;20175;-54
2023/07/18 05:40:15;;;;;;;29.58;28.12;;;23.70;92.90;;;;;;4446818;32;20523;-57
2023/07/18 05:42:43;;;;;;;27.80;26.40;;;22.70;96.80;;;;;;4449639;32;20158;-57
2023/07/18 05:45:10;;;;;;;27.80;26.50;;;22.10;97.70;;;;;;4447321;32;20582;-53
2023/07/18 05:47:37;;;;;;;27.33;25.97;;;21.60;99.20;;;;;;4438755;32;20167;-54
2023/07/18 05:50:05;;;;;;;28.27;26.60;;;21.00;99.90;;;;;;4442699;32;20182;-56
2023/07/18 05:52:32;;;;;;;26.17;24.60;;;20.50;99.90;;;;;;4446288;32;20212;-59
2023/07/18 05:54:59;;;;;;;26.93;25.47;;;19.90;99.90;;;;;;4454092;32;20155;-56
2023/07/18 05:57:28;;;;;;;25.27;23.67;;;19.50;99.90;;;;;;4443980;32;20307;-53
2023/07/18 05:59:54;;;;;;;24.50;23.30;;;19.30;99.90;;;;;;4442010;32;20242;-58
2023/07/18 06:02:21;;;;;;;24.63;23.20;;;19.10;99.90;;;;;;4440375;32;20181;-53
2023/07/18 06:04:49;;;;;;;22.80;21.60;;;18.90;99.90;;;;;;4440223;32;20154;-55
2023/07/18 06:07:16;;;;;;;26.10;24.80;;;18.70;99.90;;;;;;4449363;32;20346;-59
2023/07/18 06:09:43;;;;;;;25.40;24.03;;;18.60;99.90;;;;;;4438407;32;20171;-58
2023/07/18 06:12:11;;;;;;;24.67;23.30;;;18.60;99.90;;;;;;4439767;32;20159;-54
2023/07/18 06:14:40;;;;;;;24.53;23.00;;;18.50;99.90;;;;;;4440064;32;20181;-60
2023/07/18 06:17:07;;;;;;;22.67;21.27;;;18.40;99.90;;;;;;4439336;32;20233;-58
2023/07/18 06:19:33;;;;;;;24.70;23.07;;;18.40;99.90;;;;;;4437422;32;20202;-56
2023/07/18 06:22:00;;;;;;;25.73;24.17;;;18.50;99.90;;;;;;4444942;32;20245;-52
2023/07/18 06:24:27;;;;;;;25.83;24.03;;;18.60;99.90;;;;;;4451717;32;20209;-54
2023/07/18 06:26:54;;;;;;;24.47;23.17;;;18.80;99.90;;;;;;4441582;32;20252;-53
2023/07/18 06:29:21;;;;;;;27.80;26.20;;;18.90;99.90;;;;;;4437948;32;20167;-53
2023/07/18 06:31:51;;;;;;;27.50;25.80;;;19.10;99.90;;;;;;4440418;32;20240;-58
2023/07/18 06:34:18;;;;;;;24.40;23.00;;;19.20;99.90;;;;;;4438163;32;20910;-56
2023/07/18 06:36:45;;;;;;;27.33;25.80;;;19.20;99.90;;;;;;4434706;32;20253;-56
2023/07/18 06:39:16;;;;;;;26.37;24.47;;;19.30;99.90;;;;;;4440220;32;20152;-55
2023/07/18 06:41:44;;;;;;;25.93;24.23;;;19.40;99.90;;;;;;4441840;32;20189;-59
2023/07/18 06:44:14;;;;;;;25.70;24.27;;;19.50;99.90;;;;;;4438978;32;20203;-56
2023/07/18 06:46:41;;;;;;;26.87;25.33;;;19.50;99.90;;;;;;4438955;32;20159;-57
2023/07/18 06:49:10;;;;;;;24.67;23.37;;;19.60;99.90;;;;;;4440562;32;20171;-53
2023/07/18 06:51:36;;;;;;;25.90;24.20;;;19.80;99.90;;;;;;4439108;32;20603;-54
2023/07/18 06:54:03;;;;;;;29.77;27.97;;;19.80;99.90;;;;;;4442419;32;20178;-53
2023/07/18 06:56:31;;;;;;;25.90;24.50;;;19.80;99.90;;;;;;4445068;32;20150;-53
2023/07/18 06:58:58;;;;;;;29.27;27.67;;;19.80;99.90;;;;;;4440355;32;20167;-53
2023/07/18 07:01:25;;;;;;;26.17;24.77;;;20.00;99.90;;;;;;4438466;32;20210;-53
2023/07/18 07:03:55;;;;;;;28.30;26.57;;;20.10;99.90;;;;;;4439942;32;20211;-55
2023/07/18 07:06:24;;;;;;;27.37;25.77;;;20.40;99.90;;;;;;4439743;32;20494;-55
2023/07/18 07:08:53;;;;;;;32.03;30.13;;;20.50;99.90;;;;;;4440597;32;20218;-55
2023/07/18 07:11:20;;;;;;;28.67;26.10;;;20.60;99.90;;;;;;4443747;32;20183;-53
2023/07/18 07:13:47;;;;;;;27.00;24.83;;;20.60;99.90;;;;;;4441578;32;20238;-52
2023/07/18 07:16:17;;;;;;;28.30;26.47;;;20.40;99.90;;;;;;4448952;32;20207;-56
2023/07/18 07:18:43;;;;;;;25.47;22.83;;;20.40;99.90;;;;;;4448670;32;20187;-56
2023/07/18 07:21:11;;;;;;;26.70;25.10;;;20.50;99.90;;;;;;4452085;32;20500;-56
2023/07/18 07:23:39;;;;;;;23.57;22.07;;;21.00;99.90;;;;;;4448172;32;20154;-56
2023/07/18 07:26:07;;;;;;;25.03;23.33;;;22.30;99.90;;;;;;4451690;32;20177;-50
2023/07/18 07:28:35;;;;;;;24.97;23.30;;;23.10;99.90;;;;;;4449845;32;20177;-58
2023/07/18 07:31:03;;;;;;;25.07;23.00;;;24.00;99.90;;;;;;4449869;32;20598;-54
2023/07/18 07:33:30;;;;;;;24.10;22.53;;;24.90;99.90;;;;;;4447007;32;20154;-52
2023/07/18 07:35:57;;;;;;;24.57;22.70;;;24.80;99.90;;;;;;4443021;32;20553;-55
2023/07/18 07:38:23;;;;;;;23.10;21.45;;;25.50;99.90;;;;;;4442096;32;20171;-54
2023/07/18 07:40:52;;;;;;;28.38;26.42;;;27.30;98.30;;;;;;4440377;32;20177;-52
2023/07/18 07:43:18;;;;;;;30.62;28.83;;;29.10;96.00;;;;;;4442797;32;20205;-56
2023/07/18 07:45:45;;;;;;;38.22;35.90;;;31.70;92.30;;;;;;4440992;32;20214;-54
2023/07/18 07:48:12;;;;;;;34.65;32.50;;;35.90;81.70;;;;;;4441128;32;20207;-54
2023/07/18 07:50:39;;;;;;;28.67;27.05;;;39.60;73.90;;;;;;4440617;32;20173;-58
2023/07/18 07:53:06;;;;;;;23.08;21.87;;;42.90;66.40;;;;;;4440991;32;20158;-58
2023/07/18 07:55:33;;;;;;;22.83;21.35;;;46.10;61.40;;;;;;4438236;32;20177;-58
2023/07/18 07:58:01;;;;;;;21.87;20.70;;;48.50;55.90;;;;;;4440424;32;20185;-57
2023/07/18 08:00:28;;;;;;;19.02;18.10;;;50.00;52.60;;;;;;4437145;32;20262;-56
2023/07/18 08:02:55;;;;;;;21.08;19.87;;;51.10;49.70;;;;;;4438074;32;20174;-57
2023/07/18 08:05:22;;;;;;;20.55;19.55;;;51.60;48.30;;;;;;4439653;32;20507;-55
2023/07/18 08:07:49;;;;;;;21.60;20.30;;;51.10;46.30;;;;;;4441494;32;20226;-56
2023/07/18 08:10:17;;;;;;;22.65;21.30;;;50.80;45.50;;;;;;4438325;32;20586;-57
2023/07/18 08:12:45;;;;;;;25.52;23.98;;;50.80;45.10;;;;;;4435209;32;20583;-54
2023/07/18 08:15:13;;;;;;;28.65;27.02;;;50.80;45.00;;;;;;4436904;32;20219;-56
2023/07/18 08:17:40;;;;;;;26.87;25.52;;;51.90;44.80;;;;;;4441350;32;20182;-56
2023/07/18 08:20:10;;;;;;;23.50;22.30;;;52.90;43.90;;;;;;4437912;32;20194;-56
2023/07/18 08:22:37;;;;;;;26.25;25.05;;;53.00;42.60;;;;;;4438884;32;20224;-56
2023/07/18 08:25:05;;;;;;;27.87;26.50;;;53.00;42.40;;;;;;4437603;32;20237;-56
2023/07/18 08:27:32;;;;;;;28.23;26.83;;;52.70;42.30;;;;;;4438957;32;20575;-56
2023/07/18 08:29:59;;;;;;;26.75;25.35;;;53.20;42.40;;;;;;4439852;32;20155;-56
2023/07/18 08:32:27;;;;;;;26.65;25.45;;;53.10;41.40;;;;;;4438614;32;20178;-57
2023/07/18 08:34:55;;;;;;;31.12;29.73;;;52.40;41.50;;;;;;4448719;32;20477;-57
2023/07/18 08:37:22;;;;;;;31.02;29.52;;;51.90;42.00;;;;;;4439294;32;20598;-57
2023/07/18 08:39:49;;;;;;;28.67;27.17;;;52.40;41.60;;;;;;4442541;32;20171;-57
2023/07/18 08:42:17;;;;;;;33.58;31.77;;;53.10;40.90;;;;;;4438483;32;20147;-57
2023/07/18 08:44:45;;;;;;;39.17;37.38;;;51.70;40.10;;;;;;4435010;32;20175;-58
2023/07/18 08:47:14;;;;;;;52.22;49.75;;;51.00;40.80;;;;;;4435062;32;20209;-56
2023/07/18 08:49:42;;;;;;;71.15;68.05;;;48.90;41.10;;;;;;4436787;32;20575;-55
2023/07/18 08:52:09;;;;;;;78.37;74.97;;;47.10;42.60;;;;;;4435622;32;20177;-56
2023/07/18 08:54:37;;;;;;;77.12;73.93;;;48.20;41.90;;;;;;4437923;32;20159;-58
2023/07/18 08:57:06;;;;;;;83.10;79.70;;;47.00;42.90;;;;;;4438094;32;20191;-57
2023/07/18 08:59:33;;;;;;;81.93;78.55;;;46.80;43.00;;;;;;4439618;32;20599;-54
2023/07/18 09:02:00;;;;;;;76.45;73.22;;;46.50;42.90;;;;;;4440424;32;20283;-55
2023/07/18 09:04:27;;;;;;;79.72;76.20;;;45.80;43.50;;;;;;4441919;32;20222;-54
2023/07/18 09:06:59;;;;;;;76.82;73.45;;;44.40;44.00;;;;;;4445743;32;20598;-58
2023/07/18 09:09:26;;;;;;;74.82;71.70;;;43.80;44.40;;;;;;4443484;32;20237;-59
2023/07/18 09:11:55;;;;;;;75.37;72.07;;;44.20;44.70;;;;;;4443549;32;20177;-58
2023/07/18 09:14:30;;;;;;;82.72;79.22;;;42.00;45.20;;;;;;4441007;32;20543;-58
2023/07/18 09:16:57;;;;;;;78.37;74.90;;;43.40;45.90;;;;;;4442030;32;20155;-59
2023/07/18 09:19:41;;;;;;;78.47;74.93;;;46.60;43.70;;;;;;4445724;32;20210;-58
2023/07/18 09:22:10;;;;;;;76.20;72.85;;;47.90;42.90;;;;;;4445879;32;20264;-59
2023/07/18 09:24:38;;;;;;;73.28;69.97;;;44.40;43.00;;;;;;4444055;32;20579;-55
2023/07/18 09:27:08;;;;;;;75.87;72.50;;;40.20;45.40;;;;;;4444157;32;20171;-58
2023/07/18 09:29:35;;;;;;;115.60;111.00;;;36.10;48.90;;;;;;4443054;32;20178;-58
2023/07/18 09:32:02;;;;;;;142.68;136.62;;;34.90;51.50;;;;;;4444888;32;20586;-54
2023/07/18 09:34:30;;;;;;;182.90;175.60;;;33.40;52.80;;;;;;4444585;32;20187;-56
2023/07/18 09:36:58;;;;;;;163.85;157.12;;;34.50;53.90;;;;;;4443052;32;20175;-56
2023/07/18 09:39:27;;;;;;;140.35;134.73;;;37.70;50.90;;;;;;4446151;32;20270;-58
2023/07/18 09:41:55;;;;;;;146.15;139.85;;;37.40;49.90;;;;;;4446795;32;20259;-57
2023/07/18 09:44:24;;;;;;;187.65;180.20;;;35.70;51.50;;;;;;4446698;32;20151;-56
2023/07/18 09:46:52;;;;;;;185.77;178.12;;;36.10;52.40;;;;;;4444567;32;20494;-54
2023/07/18 09:49:19;;;;;;;167.73;160.95;;;38.70;50.80;;;;;;4441827;32;20179;-56
2023/07/18 09:51:53;;;;;;;178.32;171.02;;;37.70;50.90;;;;;;4445143;32;20598;-54
2023/07/18 09:54:21;;;;;;;178.23;170.80;;;35.60;52.40;;;;;;4443245;32;20155;-54
2023/07/18 09:56:51;;;;;;;168.60;161.52;;;33.70;55.40;;;;;;4444200;32;20194;-58
2023/07/18 09:59:22;;;;;;;166.23;159.60;;;32.60;57.20;;;;;;4442322;32;20546;-58
2023/07/18 10:01:51;;;;;;;148.10;141.68;;;32.00;58.00;;;;;;4445643;32;20171;-54
2023/07/18 10:04:20;;;;;;;127.43;122.07;;;31.50;58.60;;;;;;4443201;32;20205;-57
2023/07/18 10:06:51;;;;;;;120.43;115.60;;;31.20;59.40;;;;;;4443491;32;20163;-55
2023/07/18 10:09:19;;;;;;;104.70;100.05;;;30.80;60.00;;;;;;4443687;32;20246;-55
2023/07/18 10:12:12;;;;;;;109.20;104.28;;;30.30;60.10;;;;;;4446451;32;20153;-57
2023/07/18 10:14:52;;;;;;;99.60;95.12;;;29.80;62.10;;;;;;4441925;32;20159;-57
2023/07/18 10:17:32;;;;;;;89.87;86.12;;;29.20;63.10;;;;;;4440074;32;20151;-60
2023/07/18 10:19:59;;;;;;;91.72;87.70;;;28.90;62.80;;;;;;4443002;32;20165;-55
2023/07/18 10:22:29;;;;;;;77.80;74.53;;;28.80;64.00;;;;;;4446462;32;20155;-56
2023/07/18 10:25:00;;;;;;;85.62;81.93;;;28.30;62.70;;;;;;4444368;32;20159;-57
2023/07/18 10:27:38;;;;;;;72.93;69.72;;;27.90;65.50;;;;;;4445818;32;20667;-59
2023/07/18 10:30:06;;;;;;;60.97;58.38;;;27.30;65.30;;;;;;4442293;32;20174;-55
2023/07/18 10:32:33;;;;;;;68.00;64.95;;;26.90;65.60;;;;;;4443489;32;20205;-58
2023/07/18 10:35:01;;;;;;;60.58;58.08;;;26.50;67.20;;;;;;4445594;32;20143;-56
2023/07/18 10:37:30;;;;;;;67.10;64.28;;;26.60;68.60;;;;;;4446172;32;20731;-58
2023/07/18 10:39:58;;;;;;;56.05;53.60;;;26.40;71.80;;;;;;4435822;32;20151;-59
2023/07/18 10:42:26;;;;;;;55.90;53.17;;;26.40;71.20;;;;;;4441214;32;20174;-57
2023/07/18 10:44:58;;;;;;;52.92;50.00;;;26.40;72.60;;;;;;4438246;32;20215;-57
2023/07/18 10:47:26;;;;;;;46.25;44.15;;;26.60;73.20;;;;;;4439373;32;20202;-56
2023/07/18 10:49:54;;;;;;;42.47;40.53;;;26.60;72.50;;;;;;4433196;32;20172;-57
2023/07/18 10:52:22;;;;;;;38.95;37.25;;;26.40;70.40;;;;;;4444239;32;20491;-58
2023/07/18 10:54:54;;;;;;;40.05;38.35;;;26.40;70.80;;;;;;4444848;32;20174;-53
2023/07/18 10:57:25;;;;;;;39.20;37.13;;;26.40;70.90;;;;;;4441094;32;20208;-58
2023/07/18 10:59:54;;;;;;;39.03;37.28;;;26.30;72.20;;;;;;4443179;32;20173;-58
2023/07/18 11:02:23;;;;;;;42.65;40.47;;;26.70;71.50;;;;;;4442089;32;20178;-56
2023/07/18 11:04:52;;;;;;;35.38;33.55;;;27.00;72.80;;;;;;4441359;32;20151;-57
2023/07/18 11:07:19;;;;;;;36.65;34.88;;;27.20;69.60;;;;;;4448574;32;20194;-57
2023/07/18 11:09:47;;;;;;;39.85;38.10;;;27.20;67.90;;;;;;4443216;32;20196;-58
2023/07/18 11:12:18;;;;;;;39.42;37.47;;;27.50;69.80;;;;;;4440698;32;20205;-58
2023/07/18 11:14:46;;;;;;;37.22;35.40;;;27.50;69.50;;;;;;4436843;32;20150;-59
2023/07/18 11:17:13;;;;;;;40.70;38.85;;;27.50;70.40;;;;;;4440578;32;20189;-58
2023/07/18 11:19:42;;;;;;;38.42;36.58;;;27.30;71.90;;;;;;4442478;32;20155;-55
2023/07/18 11:22:13;;;;;;;37.60;35.67;;;27.10;71.40;;;;;;4446251;32;20206;-58
2023/07/18 11:24:44;;;;;;;36.53;34.72;;;26.60;72.50;;;;;;4444320;32;20186;-56
2023/07/18 11:27:16;;;;;;;35.03;33.30;;;26.10;74.50;;;;;;4442093;32;20160;-56
2023/07/18 11:29:50;;;;;;;36.30;34.40;;;25.90;75.60;;;;;;4440704;32;20210;-58
2023/07/18 11:32:35;;;;;;;39.40;37.35;;;25.70;76.00;;;;;;4443715;32;20167;-57
2023/07/18 11:35:06;;;;;;;38.63;36.85;;;25.80;77.70;;;;;;4452491;32;20142;-54
2023/07/18 11:37:33;;;;;;;34.75;32.95;;;26.00;75.60;;;;;;4452961;32;20551;-58
2023/07/18 11:40:00;;;;;;;32.42;30.85;;;25.80;76.70;;;;;;4435918;32;20151;-57
2023/07/18 11:42:46;;;;;;;35.05;33.45;;;25.80;76.50;;;;;;4437130;32;20166;-56
2023/07/18 11:45:13;;;;;;;37.00;35.50;;;25.80;77.30;;;;;;4438111;32;20175;-57
2023/07/18 11:47:43;;;;;;;36.10;34.58;;;25.90;75.00;;;;;;4444984;32;20616;-58
2023/07/18 11:50:12;;;;;;;35.75;34.15;;;26.40;75.40;;;;;;4441272;32;20494;-58
2023/07/18 11:52:41;;;;;;;36.03;34.53;;;26.40;70.70;;;;;;4438828;32;20158;-57
2023/07/18 11:55:08;;;;;;;38.75;37.05;;;26.30;69.80;;;;;;4438188;32;20155;-56
2023/07/18 11:57:35;;;;;;;39.47;37.72;;;26.00;70.10;;;;;;4439607;32;20173;-56
2023/07/18 12:00:04;;;;;;;34.97;33.33;;;26.10;73.20;;;;;;4441924;32;20162;-56
2023/07/18 12:02:31;;;;;;;39.20;37.10;;;26.60;73.80;;;;;;4445924;32;22005;-56
2023/07/18 12:04:57;;;;;;;39.70;37.80;;;27.00;73.00;;;;;;4443545;32;20587;-56
2023/07/18 12:07:26;;;;;;;38.58;36.80;;;27.00;71.60;;;;;;4440553;32;20166;-56
2023/07/18 12:09:54;;;;;;;37.55;35.83;;;27.30;72.70;;;;;;4440833;32;20162;-58
2023/07/18 12:12:23;;;;;;;39.00;37.17;;;27.30;71.40;;;;;;4434484;32;20150;-57
2023/07/18 12:14:50;;;;;;;38.47;36.88;;;27.20;70.60;;;;;;4438335;32;20608;-57
2023/07/18 12:17:17;;;;;;;37.28;35.47;;;27.40;71.70;;;;;;4439645;32;20189;-58
2023/07/18 12:19:44;;;;;;;37.97;36.28;;;27.50;69.00;;;;;;4437478;32;20252;-58
2023/07/18 12:22:15;;;;;;;38.65;36.90;;;27.30;70.10;;;;;;4442036;32;20147;-58
2023/07/18 12:24:43;;;;;;;38.92;37.08;;;27.30;69.20;;;;;;4440200;32;20258;-55
2023/07/18 12:27:12;;;;;;;37.95;36.40;;;27.00;69.10;;;;;;4442396;32;20177;-59
2023/07/18 12:29:39;;;;;;;39.40;37.65;;;26.90;69.80;;;;;;4444462;32;20205;-57